sensor_id;sensor_type;location;lat;lon;timestamp;P1;durP1;ratioP1;P2;durP2;ratioP2
68010;SDS011;54794;48.348;7.878;2022-07-25T00:00:25;3.42;;;2.65;;
68010;SDS011;54794;48.348;7.878;2022-07-25T00:02:52;3.28;;;2.83;;
68010;SDS011;54794;48.348;7.878;2022-07-25T00:05:19;3.60;;;2.70;;
68010;SDS011;54794;48.348;7.878;2022-07-25T00:07:46;4.63;;;3.17;;
68010;SDS011;54794;48.348;7.878;2022-07-25T00:12:41;3.25;;;2.78;;
68010;SDS011;54794;48.348;7.878;2022-07-25T00:15:09;3.10;;;2.55;;
68010;SDS011;54794;48.348;7.878;2022-07-25T00:17:37;4.28;;;3.30;;
68010;SDS011;54794;48.348;7.878;2022-07-25T00:20:05;3.75;;;3.38;;
68010;SDS011;54794;48.348;7.878;2022-07-25T00:22:33;5.47;;;3.58;;
68010;SDS011;54794;48.348;7.878;2022-07-25T00:25:01;3.90;;;3.03;;
68010;SDS011;54794;48.348;7.878;2022-07-25T00:27:28;3.83;;;2.97;;
68010;SDS011;54794;48.348;7.878;2022-07-25T00:29:55;5.20;;;3.20;;
68010;SDS011;54794;48.348;7.878;2022-07-25T00:32:22;3.00;;;2.70;;
68010;SDS011;54794;48.348;7.878;2022-07-25T00:34:49;3.30;;;2.97;;
68010;SDS011;54794;48.348;7.878;2022-07-25T00:37:16;3.90;;;3.13;;
68010;SDS011;54794;48.348;7.878;2022-07-25T00:39:43;4.78;;;3.67;;
68010;SDS011;54794;48.348;7.878;2022-07-25T00:42:10;3.58;;;3.13;;
68010;SDS011;54794;48.348;7.878;2022-07-25T00:44:37;4.28;;;3.10;;
68010;SDS011;54794;48.348;7.878;2022-07-25T00:47:04;3.63;;;3.25;;
68010;SDS011;54794;48.348;7.878;2022-07-25T00:49:31;4.40;;;3.35;;
68010;SDS011;54794;48.348;7.878;2022-07-25T00:51:58;4.90;;;3.22;;
68010;SDS011;54794;48.348;7.878;2022-07-25T00:54:26;3.42;;;2.47;;
68010;SDS011;54794;48.348;7.878;2022-07-25T00:56:54;4.07;;;3.20;;
68010;SDS011;54794;48.348;7.878;2022-07-25T00:59:22;3.58;;;3.22;;
68010;SDS011;54794;48.348;7.878;2022-07-25T01:01:49;3.83;;;3.20;;
68010;SDS011;54794;48.348;7.878;2022-07-25T01:04:16;3.25;;;2.88;;
68010;SDS011;54794;48.348;7.878;2022-07-25T01:06:43;4.95;;;3.42;;
68010;SDS011;54794;48.348;7.878;2022-07-25T01:09:10;4.88;;;3.05;;
68010;SDS011;54794;48.348;7.878;2022-07-25T01:11:38;4.68;;;3.30;;
68010;SDS011;54794;48.348;7.878;2022-07-25T01:14:05;5.85;;;3.40;;
68010;SDS011;54794;48.348;7.878;2022-07-25T01:16:33;3.95;;;3.38;;
68010;SDS011;54794;48.348;7.878;2022-07-25T01:19:00;3.50;;;3.20;;
68010;SDS011;54794;48.348;7.878;2022-07-25T01:21:27;4.85;;;3.67;;
68010;SDS011;54794;48.348;7.878;2022-07-25T01:26:21;4.50;;;3.45;;
68010;SDS011;54794;48.348;7.878;2022-07-25T01:28:48;4.00;;;3.13;;
68010;SDS011;54794;48.348;7.878;2022-07-25T01:31:15;3.58;;;3.05;;
68010;SDS011;54794;48.348;7.878;2022-07-25T01:33:43;4.13;;;3.72;;
68010;SDS011;54794;48.348;7.878;2022-07-25T01:36:10;4.75;;;3.85;;
68010;SDS011;54794;48.348;7.878;2022-07-25T01:38:37;3.70;;;3.28;;
68010;SDS011;54794;48.348;7.878;2022-07-25T01:41:04;5.18;;;3.47;;
68010;SDS011;54794;48.348;7.878;2022-07-25T01:43:31;3.60;;;3.28;;
68010;SDS011;54794;48.348;7.878;2022-07-25T01:45:58;3.72;;;3.22;;
68010;SDS011;54794;48.348;7.878;2022-07-25T01:48:25;4.80;;;3.45;;
68010;SDS011;54794;48.348;7.878;2022-07-25T01:50:52;4.25;;;3.50;;
68010;SDS011;54794;48.348;7.878;2022-07-25T01:53:19;3.50;;;3.05;;
68010;SDS011;54794;48.348;7.878;2022-07-25T01:55:46;4.68;;;3.35;;
68010;SDS011;54794;48.348;7.878;2022-07-25T01:58:13;4.63;;;3.30;;
68010;SDS011;54794;48.348;7.878;2022-07-25T02:00:40;4.32;;;3.83;;
68010;SDS011;54794;48.348;7.878;2022-07-25T02:03:07;6.57;;;3.63;;
68010;SDS011;54794;48.348;7.878;2022-07-25T02:05:53;4.15;;;3.20;;
68010;SDS011;54794;48.348;7.878;2022-07-25T02:08:21;5.70;;;3.75;;
68010;SDS011;54794;48.348;7.878;2022-07-25T02:10:48;5.10;;;3.50;;
68010;SDS011;54794;48.348;7.878;2022-07-25T02:13:15;6.18;;;3.67;;
68010;SDS011;54794;48.348;7.878;2022-07-25T02:15:42;3.40;;;3.03;;
68010;SDS011;54794;48.348;7.878;2022-07-25T02:18:09;4.53;;;3.85;;
68010;SDS011;54794;48.348;7.878;2022-07-25T02:23:04;4.57;;;3.30;;
68010;SDS011;54794;48.348;7.878;2022-07-25T02:25:31;4.15;;;3.65;;
68010;SDS011;54794;48.348;7.878;2022-07-25T02:27:59;5.22;;;3.22;;
68010;SDS011;54794;48.348;7.878;2022-07-25T02:30:26;3.85;;;3.42;;
68010;SDS011;54794;48.348;7.878;2022-07-25T02:32:53;4.93;;;3.60;;
68010;SDS011;54794;48.348;7.878;2022-07-25T02:35:20;5.25;;;3.75;;
68010;SDS011;54794;48.348;7.878;2022-07-25T02:37:47;4.35;;;3.50;;
68010;SDS011;54794;48.348;7.878;2022-07-25T02:40:14;4.72;;;3.80;;
68010;SDS011;54794;48.348;7.878;2022-07-25T02:42:41;4.65;;;3.80;;
68010;SDS011;54794;48.348;7.878;2022-07-25T02:45:08;4.72;;;3.22;;
68010;SDS011;54794;48.348;7.878;2022-07-25T02:47:35;4.63;;;3.67;;
68010;SDS011;54794;48.348;7.878;2022-07-25T02:50:03;4.70;;;2.90;;
68010;SDS011;54794;48.348;7.878;2022-07-25T02:52:31;4.03;;;3.63;;
68010;SDS011;54794;48.348;7.878;2022-07-25T02:54:58;4.88;;;3.72;;
68010;SDS011;54794;48.348;7.878;2022-07-25T02:57:27;8.05;;;4.10;;
68010;SDS011;54794;48.348;7.878;2022-07-25T02:59:54;5.07;;;4.00;;
68010;SDS011;54794;48.348;7.878;2022-07-25T03:02:21;3.72;;;3.33;;
68010;SDS011;54794;48.348;7.878;2022-07-25T03:04:48;4.57;;;3.85;;
68010;SDS011;54794;48.348;7.878;2022-07-25T03:07:14;3.65;;;3.30;;
68010;SDS011;54794;48.348;7.878;2022-07-25T03:09:41;7.63;;;3.85;;
68010;SDS011;54794;48.348;7.878;2022-07-25T03:12:08;3.97;;;3.47;;
68010;SDS011;54794;48.348;7.878;2022-07-25T03:14:35;4.15;;;3.40;;
68010;SDS011;54794;48.348;7.878;2022-07-25T03:17:02;4.93;;;3.80;;
68010;SDS011;54794;48.348;7.878;2022-07-25T03:19:29;4.13;;;3.35;;
68010;SDS011;54794;48.348;7.878;2022-07-25T03:21:57;4.93;;;4.05;;
68010;SDS011;54794;48.348;7.878;2022-07-25T03:24:24;4.80;;;3.92;;
68010;SDS011;54794;48.348;7.878;2022-07-25T03:26:51;5.22;;;3.63;;
68010;SDS011;54794;48.348;7.878;2022-07-25T03:29:18;3.90;;;3.45;;
68010;SDS011;54794;48.348;7.878;2022-07-25T03:31:45;4.20;;;3.67;;
68010;SDS011;54794;48.348;7.878;2022-07-25T03:34:11;6.20;;;3.70;;
68010;SDS011;54794;48.348;7.878;2022-07-25T03:36:38;4.05;;;3.63;;
68010;SDS011;54794;48.348;7.878;2022-07-25T03:39:05;4.50;;;3.97;;
68010;SDS011;54794;48.348;7.878;2022-07-25T03:41:32;4.60;;;3.95;;
68010;SDS011;54794;48.348;7.878;2022-07-25T03:43:59;4.28;;;3.75;;
68010;SDS011;54794;48.348;7.878;2022-07-25T03:46:26;5.50;;;3.95;;
68010;SDS011;54794;48.348;7.878;2022-07-25T03:48:53;4.85;;;4.00;;
68010;SDS011;54794;48.348;7.878;2022-07-25T03:51:20;4.93;;;3.58;;
68010;SDS011;54794;48.348;7.878;2022-07-25T03:53:47;6.32;;;4.07;;
68010;SDS011;54794;48.348;7.878;2022-07-25T03:56:27;4.32;;;3.92;;
68010;SDS011;54794;48.348;7.878;2022-07-25T03:59:09;4.97;;;3.67;;
68010;SDS011;54794;48.348;7.878;2022-07-25T04:01:39;3.22;;;2.92;;
68010;SDS011;54794;48.348;7.878;2022-07-25T04:04:07;6.28;;;4.05;;
68010;SDS011;54794;48.348;7.878;2022-07-25T04:06:35;6.47;;;4.03;;
68010;SDS011;54794;48.348;7.878;2022-07-25T04:09:04;4.68;;;3.67;;
68010;SDS011;54794;48.348;7.878;2022-07-25T04:11:32;4.35;;;3.92;;
68010;SDS011;54794;48.348;7.878;2022-07-25T04:14:01;4.55;;;4.05;;
68010;SDS011;54794;48.348;7.878;2022-07-25T04:16:29;5.13;;;4.00;;
68010;SDS011;54794;48.348;7.878;2022-07-25T04:21:26;4.93;;;3.75;;
68010;SDS011;54794;48.348;7.878;2022-07-25T04:23:53;6.43;;;3.88;;
68010;SDS011;54794;48.348;7.878;2022-07-25T04:26:20;3.63;;;3.28;;
68010;SDS011;54794;48.348;7.878;2022-07-25T04:28:47;4.22;;;3.83;;
68010;SDS011;54794;48.348;7.878;2022-07-25T04:31:14;4.25;;;3.80;;
68010;SDS011;54794;48.348;7.878;2022-07-25T04:33:41;4.63;;;3.58;;
68010;SDS011;54794;48.348;7.878;2022-07-25T04:36:09;5.00;;;3.95;;
68010;SDS011;54794;48.348;7.878;2022-07-25T04:38:36;5.22;;;4.15;;
68010;SDS011;54794;48.348;7.878;2022-07-25T04:41:03;4.55;;;4.00;;
68010;SDS011;54794;48.348;7.878;2022-07-25T04:43:30;5.15;;;4.00;;
68010;SDS011;54794;48.348;7.878;2022-07-25T04:45:57;4.95;;;3.45;;
68010;SDS011;54794;48.348;7.878;2022-07-25T04:48:24;4.07;;;3.53;;
68010;SDS011;54794;48.348;7.878;2022-07-25T04:50:52;4.07;;;3.67;;
68010;SDS011;54794;48.348;7.878;2022-07-25T04:53:19;5.55;;;3.88;;
68010;SDS011;54794;48.348;7.878;2022-07-25T04:55:46;5.43;;;3.55;;
68010;SDS011;54794;48.348;7.878;2022-07-25T04:58:13;5.03;;;3.92;;
68010;SDS011;54794;48.348;7.878;2022-07-25T05:00:40;4.55;;;3.67;;
68010;SDS011;54794;48.348;7.878;2022-07-25T05:03:08;5.75;;;3.92;;
68010;SDS011;54794;48.348;7.878;2022-07-25T05:05:35;4.25;;;3.80;;
68010;SDS011;54794;48.348;7.878;2022-07-25T05:08:03;5.00;;;4.03;;
68010;SDS011;54794;48.348;7.878;2022-07-25T05:10:30;5.43;;;3.78;;
68010;SDS011;54794;48.348;7.878;2022-07-25T05:12:57;4.35;;;3.70;;
68010;SDS011;54794;48.348;7.878;2022-07-25T05:15:24;7.03;;;4.25;;
68010;SDS011;54794;48.348;7.878;2022-07-25T05:17:51;4.53;;;4.03;;
68010;SDS011;54794;48.348;7.878;2022-07-25T05:20:18;4.10;;;3.58;;
68010;SDS011;54794;48.348;7.878;2022-07-25T05:22:45;4.63;;;4.10;;
68010;SDS011;54794;48.348;7.878;2022-07-25T05:25:12;4.13;;;3.40;;
68010;SDS011;54794;48.348;7.878;2022-07-25T05:27:39;4.18;;;3.78;;
68010;SDS011;54794;48.348;7.878;2022-07-25T05:32:35;5.72;;;3.78;;
68010;SDS011;54794;48.348;7.878;2022-07-25T05:35:07;4.53;;;3.63;;
68010;SDS011;54794;48.348;7.878;2022-07-25T05:37:35;5.72;;;4.15;;
68010;SDS011;54794;48.348;7.878;2022-07-25T05:40:03;4.22;;;3.75;;
68010;SDS011;54794;48.348;7.878;2022-07-25T05:42:32;3.92;;;3.50;;
68010;SDS011;54794;48.348;7.878;2022-07-25T05:44:59;5.25;;;3.80;;
68010;SDS011;54794;48.348;7.878;2022-07-25T05:49:53;3.88;;;3.47;;
68010;SDS011;54794;48.348;7.878;2022-07-25T05:52:20;6.07;;;4.20;;
68010;SDS011;54794;48.348;7.878;2022-07-25T05:54:48;4.20;;;3.75;;
68010;SDS011;54794;48.348;7.878;2022-07-25T05:59:42;4.88;;;3.63;;
68010;SDS011;54794;48.348;7.878;2022-07-25T06:02:09;4.78;;;3.67;;
68010;SDS011;54794;48.348;7.878;2022-07-25T06:04:36;5.57;;;3.92;;
68010;SDS011;54794;48.348;7.878;2022-07-25T06:07:03;5.30;;;4.10;;
68010;SDS011;54794;48.348;7.878;2022-07-25T06:09:30;4.20;;;3.20;;
68010;SDS011;54794;48.348;7.878;2022-07-25T06:11:57;5.07;;;3.92;;
68010;SDS011;54794;48.348;7.878;2022-07-25T06:14:27;5.80;;;4.30;;
68010;SDS011;54794;48.348;7.878;2022-07-25T06:16:54;5.78;;;4.07;;
68010;SDS011;54794;48.348;7.878;2022-07-25T06:19:22;4.65;;;3.90;;
68010;SDS011;54794;48.348;7.878;2022-07-25T06:21:49;5.63;;;3.97;;
68010;SDS011;54794;48.348;7.878;2022-07-25T06:24:16;6.43;;;4.07;;
68010;SDS011;54794;48.348;7.878;2022-07-25T06:26:43;3.90;;;3.28;;
68010;SDS011;54794;48.348;7.878;2022-07-25T06:29:10;4.30;;;3.90;;
68010;SDS011;54794;48.348;7.878;2022-07-25T06:31:37;4.20;;;3.80;;
68010;SDS011;54794;48.348;7.878;2022-07-25T06:34:05;4.47;;;4.07;;
68010;SDS011;54794;48.348;7.878;2022-07-25T06:36:33;4.95;;;3.85;;
68010;SDS011;54794;48.348;7.878;2022-07-25T06:41:27;3.95;;;3.25;;
68010;SDS011;54794;48.348;7.878;2022-07-25T06:43:54;7.07;;;3.67;;
68010;SDS011;54794;48.348;7.878;2022-07-25T06:46:21;4.07;;;3.67;;
68010;SDS011;54794;48.348;7.878;2022-07-25T06:48:48;8.77;;;4.07;;
68010;SDS011;54794;48.348;7.878;2022-07-25T06:51:15;5.00;;;4.18;;
68010;SDS011;54794;48.348;7.878;2022-07-25T06:53:42;4.50;;;3.63;;
68010;SDS011;54794;48.348;7.878;2022-07-25T06:56:09;4.20;;;3.80;;
68010;SDS011;54794;48.348;7.878;2022-07-25T06:58:42;4.63;;;3.28;;
68010;SDS011;54794;48.348;7.878;2022-07-25T07:01:09;4.35;;;3.80;;
68010;SDS011;54794;48.348;7.878;2022-07-25T07:03:36;5.10;;;3.90;;
68010;SDS011;54794;48.348;7.878;2022-07-25T07:06:06;4.25;;;3.28;;
68010;SDS011;54794;48.348;7.878;2022-07-25T07:08:34;4.07;;;3.67;;
68010;SDS011;54794;48.348;7.878;2022-07-25T07:11:02;5.13;;;4.13;;
68010;SDS011;54794;48.348;7.878;2022-07-25T07:13:31;4.13;;;3.60;;
68010;SDS011;54794;48.348;7.878;2022-07-25T07:15:59;4.43;;;3.95;;
68010;SDS011;54794;48.348;7.878;2022-07-25T07:18:26;4.70;;;3.80;;
68010;SDS011;54794;48.348;7.878;2022-07-25T07:20:53;4.93;;;3.40;;
68010;SDS011;54794;48.348;7.878;2022-07-25T07:23:20;5.00;;;4.22;;
68010;SDS011;54794;48.348;7.878;2022-07-25T07:25:49;4.28;;;3.50;;
68010;SDS011;54794;48.348;7.878;2022-07-25T07:28:16;3.88;;;3.47;;
68010;SDS011;54794;48.348;7.878;2022-07-25T07:30:43;3.95;;;3.55;;
68010;SDS011;54794;48.348;7.878;2022-07-25T07:33:30;5.18;;;3.85;;
68010;SDS011;54794;48.348;7.878;2022-07-25T07:35:58;4.82;;;4.38;;
68010;SDS011;54794;48.348;7.878;2022-07-25T07:38:27;5.28;;;4.25;;
68010;SDS011;54794;48.348;7.878;2022-07-25T07:40:53;6.18;;;4.50;;
68010;SDS011;54794;48.348;7.878;2022-07-25T07:43:20;4.82;;;4.03;;
68010;SDS011;54794;48.348;7.878;2022-07-25T07:45:54;7.40;;;4.28;;
68010;SDS011;54794;48.348;7.878;2022-07-25T07:48:25;4.78;;;4.28;;
68010;SDS011;54794;48.348;7.878;2022-07-25T07:50:52;5.07;;;4.57;;
68010;SDS011;54794;48.348;7.878;2022-07-25T07:53:19;4.43;;;3.72;;
68010;SDS011;54794;48.348;7.878;2022-07-25T07:55:46;7.72;;;4.38;;
68010;SDS011;54794;48.348;7.878;2022-07-25T07:58:20;7.38;;;4.07;;
68010;SDS011;54794;48.348;7.878;2022-07-25T08:00:48;4.85;;;4.22;;
68010;SDS011;54794;48.348;7.878;2022-07-25T08:03:17;4.95;;;4.22;;
68010;SDS011;54794;48.348;7.878;2022-07-25T08:05:46;4.82;;;4.13;;
68010;SDS011;54794;48.348;7.878;2022-07-25T08:08:14;5.70;;;4.45;;
68010;SDS011;54794;48.348;7.878;2022-07-25T08:10:43;4.35;;;3.83;;
68010;SDS011;54794;48.348;7.878;2022-07-25T08:13:25;5.10;;;3.90;;
68010;SDS011;54794;48.348;7.878;2022-07-25T08:15:59;8.70;;;4.57;;
68010;SDS011;54794;48.348;7.878;2022-07-25T08:18:29;6.30;;;4.60;;
68010;SDS011;54794;48.348;7.878;2022-07-25T08:21:00;5.88;;;4.00;;
68010;SDS011;54794;48.348;7.878;2022-07-25T08:23:33;3.75;;;3.15;;
68010;SDS011;54794;48.348;7.878;2022-07-25T08:26:03;4.45;;;3.80;;
68010;SDS011;54794;48.348;7.878;2022-07-25T08:28:31;4.20;;;3.20;;
68010;SDS011;54794;48.348;7.878;2022-07-25T08:30:58;5.13;;;3.50;;
68010;SDS011;54794;48.348;7.878;2022-07-25T08:33:26;6.55;;;4.03;;
68010;SDS011;54794;48.348;7.878;2022-07-25T08:35:54;4.15;;;3.50;;
68010;SDS011;54794;48.348;7.878;2022-07-25T08:38:24;3.95;;;3.47;;
68010;SDS011;54794;48.348;7.878;2022-07-25T08:40:53;6.03;;;4.10;;
68010;SDS011;54794;48.348;7.878;2022-07-25T08:43:22;3.47;;;3.13;;
68010;SDS011;54794;48.348;7.878;2022-07-25T08:45:50;3.90;;;3.30;;
68010;SDS011;54794;48.348;7.878;2022-07-25T08:48:23;6.25;;;3.70;;
68010;SDS011;54794;48.348;7.878;2022-07-25T08:50:52;3.60;;;3.30;;
68010;SDS011;54794;48.348;7.878;2022-07-25T08:53:22;4.45;;;4.05;;
68010;SDS011;54794;48.348;7.878;2022-07-25T08:58:38;3.20;;;2.90;;
68010;SDS011;54794;48.348;7.878;2022-07-25T09:01:06;4.05;;;3.65;;
68010;SDS011;54794;48.348;7.878;2022-07-25T09:03:33;3.70;;;3.08;;
68010;SDS011;54794;48.348;7.878;2022-07-25T09:06:11;3.67;;;3.17;;
68010;SDS011;54794;48.348;7.878;2022-07-25T09:08:54;3.22;;;2.92;;
68010;SDS011;54794;48.348;7.878;2022-07-25T09:11:34;4.43;;;3.22;;
68010;SDS011;54794;48.348;7.878;2022-07-25T09:14:06;4.18;;;3.25;;
68010;SDS011;54794;48.348;7.878;2022-07-25T09:16:41;3.85;;;3.38;;
68010;SDS011;54794;48.348;7.878;2022-07-25T09:19:11;3.55;;;3.17;;
68010;SDS011;54794;48.348;7.878;2022-07-25T09:22:05;5.13;;;3.53;;
68010;SDS011;54794;48.348;7.878;2022-07-25T09:24:35;3.92;;;3.42;;
68010;SDS011;54794;48.348;7.878;2022-07-25T09:27:09;4.07;;;3.13;;
68010;SDS011;54794;48.348;7.878;2022-07-25T09:29:38;3.88;;;3.05;;
68010;SDS011;54794;48.348;7.878;2022-07-25T09:34:46;3.65;;;2.90;;
68010;SDS011;54794;48.348;7.878;2022-07-25T09:37:16;4.60;;;3.28;;
68010;SDS011;54794;48.348;7.878;2022-07-25T09:39:50;3.83;;;3.00;;
68010;SDS011;54794;48.348;7.878;2022-07-25T09:42:22;4.38;;;3.35;;
68010;SDS011;54794;48.348;7.878;2022-07-25T09:47:30;4.43;;;3.45;;
68010;SDS011;54794;48.348;7.878;2022-07-25T09:49:59;5.47;;;3.03;;
68010;SDS011;54794;48.348;7.878;2022-07-25T09:52:27;3.60;;;3.20;;
68010;SDS011;54794;48.348;7.878;2022-07-25T09:54:54;3.55;;;3.17;;
68010;SDS011;54794;48.348;7.878;2022-07-25T09:59:51;3.63;;;2.90;;
68010;SDS011;54794;48.348;7.878;2022-07-25T10:08:04;2.55;;;2.35;;
68010;SDS011;54794;48.348;7.878;2022-07-25T10:10:36;6.57;;;5.20;;
68010;SDS011;54794;48.348;7.878;2022-07-25T10:15:44;8.20;;;3.22;;
68010;SDS011;54794;48.348;7.878;2022-07-25T10:20:44;2.58;;;2.35;;
68010;SDS011;54794;48.348;7.878;2022-07-25T10:23:22;6.55;;;2.97;;
68010;SDS011;54794;48.348;7.878;2022-07-25T10:26:09;4.10;;;2.67;;
68010;SDS011;54794;48.348;7.878;2022-07-25T10:28:45;3.05;;;2.63;;
68010;SDS011;54794;48.348;7.878;2022-07-25T10:31:21;3.05;;;2.65;;
68010;SDS011;54794;48.348;7.878;2022-07-25T10:34:02;2.95;;;2.60;;
68010;SDS011;54794;48.348;7.878;2022-07-25T10:36:49;3.15;;;2.80;;
68010;SDS011;54794;48.348;7.878;2022-07-25T10:39:19;4.40;;;2.70;;
68010;SDS011;54794;48.348;7.878;2022-07-25T10:41:51;2.75;;;2.55;;
68010;SDS011;54794;48.348;7.878;2022-07-25T10:44:21;2.60;;;2.40;;
68010;SDS011;54794;48.348;7.878;2022-07-25T10:46:48;2.60;;;2.40;;
68010;SDS011;54794;48.348;7.878;2022-07-25T10:49:22;2.80;;;2.30;;
68010;SDS011;54794;48.348;7.878;2022-07-25T10:51:58;4.05;;;2.17;;
68010;SDS011;54794;48.348;7.878;2022-07-25T10:54:36;2.05;;;1.85;;
68010;SDS011;54794;48.348;7.878;2022-07-25T10:57:04;2.65;;;2.45;;
68010;SDS011;54794;48.348;7.878;2022-07-25T10:59:40;3.15;;;2.38;;
68010;SDS011;54794;48.348;7.878;2022-07-25T11:02:08;3.20;;;2.83;;
68010;SDS011;54794;48.348;7.878;2022-07-25T11:05:20;4.13;;;2.70;;
68010;SDS011;54794;48.348;7.878;2022-07-25T11:07:48;4.60;;;2.88;;
68010;SDS011;54794;48.348;7.878;2022-07-25T11:10:37;3.53;;;2.40;;
68010;SDS011;54794;48.348;7.878;2022-07-25T11:13:08;5.50;;;2.85;;
68010;SDS011;54794;48.348;7.878;2022-07-25T11:15:39;4.05;;;2.85;;
68010;SDS011;54794;48.348;7.878;2022-07-25T11:18:09;4.45;;;2.50;;
68010;SDS011;54794;48.348;7.878;2022-07-25T11:20:37;3.15;;;2.63;;
68010;SDS011;54794;48.348;7.878;2022-07-25T11:23:04;2.75;;;2.47;;
68010;SDS011;54794;48.348;7.878;2022-07-25T11:25:31;2.95;;;2.70;;
68010;SDS011;54794;48.348;7.878;2022-07-25T11:27:59;3.42;;;2.80;;
68010;SDS011;54794;48.348;7.878;2022-07-25T11:30:28;2.80;;;2.50;;
68010;SDS011;54794;48.348;7.878;2022-07-25T11:32:56;3.03;;;2.60;;
68010;SDS011;54794;48.348;7.878;2022-07-25T11:35:30;4.30;;;2.80;;
68010;SDS011;54794;48.348;7.878;2022-07-25T11:37:59;4.45;;;2.92;;
68010;SDS011;54794;48.348;7.878;2022-07-25T11:40:27;2.83;;;2.35;;
68010;SDS011;54794;48.348;7.878;2022-07-25T11:42:57;3.40;;;2.80;;
68010;SDS011;54794;48.348;7.878;2022-07-25T11:45:29;3.58;;;2.90;;
68010;SDS011;54794;48.348;7.878;2022-07-25T11:48:09;3.17;;;2.80;;
68010;SDS011;54794;48.348;7.878;2022-07-25T11:50:42;5.45;;;2.80;;
68010;SDS011;54794;48.348;7.878;2022-07-25T11:53:11;3.30;;;2.67;;
68010;SDS011;54794;48.348;7.878;2022-07-25T11:55:41;5.13;;;2.72;;
68010;SDS011;54794;48.348;7.878;2022-07-25T11:58:09;3.42;;;2.63;;
68010;SDS011;54794;48.348;7.878;2022-07-25T12:00:39;4.07;;;2.40;;
68010;SDS011;54794;48.348;7.878;2022-07-25T12:03:16;3.75;;;2.30;;
68010;SDS011;54794;48.348;7.878;2022-07-25T12:05:46;3.95;;;2.60;;
68010;SDS011;54794;48.348;7.878;2022-07-25T12:08:18;5.70;;;2.88;;
68010;SDS011;54794;48.348;7.878;2022-07-25T12:10:48;2.78;;;2.50;;
68010;SDS011;54794;48.348;7.878;2022-07-25T12:13:23;2.28;;;2.08;;
68010;SDS011;54794;48.348;7.878;2022-07-25T12:15:54;1.93;;;1.70;;
68010;SDS011;54794;48.348;7.878;2022-07-25T12:18:22;2.40;;;2.20;;
68010;SDS011;54794;48.348;7.878;2022-07-25T12:20:51;2.92;;;2.50;;
68010;SDS011;54794;48.348;7.878;2022-07-25T12:23:18;4.10;;;2.30;;
68010;SDS011;54794;48.348;7.878;2022-07-25T12:25:47;3.78;;;2.45;;
68010;SDS011;54794;48.348;7.878;2022-07-25T12:28:14;3.28;;;2.22;;
68010;SDS011;54794;48.348;7.878;2022-07-25T12:30:42;3.60;;;2.40;;
68010;SDS011;54794;48.348;7.878;2022-07-25T12:33:11;2.47;;;2.00;;
68010;SDS011;54794;48.348;7.878;2022-07-25T12:35:39;2.63;;;2.05;;
68010;SDS011;54794;48.348;7.878;2022-07-25T12:38:07;2.80;;;2.50;;
68010;SDS011;54794;48.348;7.878;2022-07-25T12:40:36;2.95;;;2.65;;
68010;SDS011;54794;48.348;7.878;2022-07-25T12:43:04;2.80;;;2.45;;
68010;SDS011;54794;48.348;7.878;2022-07-25T12:45:31;5.43;;;2.65;;
68010;SDS011;54794;48.348;7.878;2022-07-25T12:47:59;3.03;;;2.72;;
68010;SDS011;54794;48.348;7.878;2022-07-25T12:50:26;3.63;;;2.63;;
68010;SDS011;54794;48.348;7.878;2022-07-25T12:52:52;3.58;;;2.72;;
68010;SDS011;54794;48.348;7.878;2022-07-25T12:55:20;4.78;;;2.33;;
68010;SDS011;54794;48.348;7.878;2022-07-25T12:57:47;3.90;;;2.60;;
68010;SDS011;54794;48.348;7.878;2022-07-25T13:00:16;5.05;;;2.40;;
68010;SDS011;54794;48.348;7.878;2022-07-25T13:02:46;2.78;;;2.58;;
68010;SDS011;54794;48.348;7.878;2022-07-25T13:05:17;2.92;;;2.60;;
68010;SDS011;54794;48.348;7.878;2022-07-25T13:07:44;3.00;;;2.70;;
68010;SDS011;54794;48.348;7.878;2022-07-25T13:10:14;5.22;;;2.55;;
68010;SDS011;54794;48.348;7.878;2022-07-25T13:12:41;16.05;;;3.25;;
68010;SDS011;54794;48.348;7.878;2022-07-25T13:15:08;2.95;;;2.60;;
68010;SDS011;54794;48.348;7.878;2022-07-25T13:17:36;2.72;;;2.53;;
68010;SDS011;54794;48.348;7.878;2022-07-25T13:20:03;4.13;;;2.40;;
68010;SDS011;54794;48.348;7.878;2022-07-25T13:22:31;5.13;;;2.90;;
68010;SDS011;54794;48.348;7.878;2022-07-25T13:24:58;4.05;;;2.65;;
68010;SDS011;54794;48.348;7.878;2022-07-25T13:27:25;3.05;;;2.75;;
68010;SDS011;54794;48.348;7.878;2022-07-25T13:29:52;4.15;;;2.63;;
68010;SDS011;54794;48.348;7.878;2022-07-25T13:32:20;3.03;;;2.78;;
68010;SDS011;54794;48.348;7.878;2022-07-25T13:34:48;3.92;;;2.83;;
68010;SDS011;54794;48.348;7.878;2022-07-25T13:37:15;3.08;;;2.78;;
68010;SDS011;54794;48.348;7.878;2022-07-25T13:39:42;5.07;;;2.45;;
68010;SDS011;54794;48.348;7.878;2022-07-25T13:42:09;2.90;;;2.60;;
68010;SDS011;54794;48.348;7.878;2022-07-25T13:44:36;2.70;;;2.35;;
68010;SDS011;54794;48.348;7.878;2022-07-25T13:47:03;4.57;;;2.67;;
68010;SDS011;54794;48.348;7.878;2022-07-25T13:49:31;3.33;;;2.53;;
68010;SDS011;54794;48.348;7.878;2022-07-25T13:51:58;3.03;;;2.72;;
68010;SDS011;54794;48.348;7.878;2022-07-25T13:54:25;3.08;;;2.20;;
68010;SDS011;54794;48.348;7.878;2022-07-25T13:56:52;2.90;;;2.38;;
68010;SDS011;54794;48.348;7.878;2022-07-25T13:59:19;2.70;;;2.28;;
68010;SDS011;54794;48.348;7.878;2022-07-25T14:01:47;3.38;;;2.35;;
68010;SDS011;54794;48.348;7.878;2022-07-25T14:04:15;2.95;;;2.45;;
68010;SDS011;54794;48.348;7.878;2022-07-25T14:06:42;3.03;;;2.40;;
68010;SDS011;54794;48.348;7.878;2022-07-25T14:09:09;2.30;;;2.10;;
68010;SDS011;54794;48.348;7.878;2022-07-25T14:11:37;2.70;;;2.28;;
68010;SDS011;54794;48.348;7.878;2022-07-25T14:16:31;3.60;;;2.15;;
68010;SDS011;54794;48.348;7.878;2022-07-25T14:18:59;2.83;;;2.30;;
68010;SDS011;54794;48.348;7.878;2022-07-25T14:21:27;2.35;;;2.13;;
68010;SDS011;54794;48.348;7.878;2022-07-25T14:23:55;2.53;;;2.10;;
68010;SDS011;54794;48.348;7.878;2022-07-25T14:26:22;2.25;;;2.05;;
68010;SDS011;54794;48.348;7.878;2022-07-25T14:28:50;2.95;;;2.47;;
68010;SDS011;54794;48.348;7.878;2022-07-25T14:31:17;2.70;;;2.38;;
68010;SDS011;54794;48.348;7.878;2022-07-25T14:33:46;3.00;;;2.13;;
68010;SDS011;54794;48.348;7.878;2022-07-25T14:36:13;3.13;;;2.70;;
68010;SDS011;54794;48.348;7.878;2022-07-25T14:38:40;4.13;;;2.58;;
68010;SDS011;54794;48.348;7.878;2022-07-25T14:43:38;5.82;;;2.33;;
68010;SDS011;54794;48.348;7.878;2022-07-25T14:46:06;4.43;;;2.17;;
68010;SDS011;54794;48.348;7.878;2022-07-25T14:48:35;8.93;;;2.92;;
68010;SDS011;54794;48.348;7.878;2022-07-25T14:51:03;5.32;;;2.60;;
68010;SDS011;54794;48.348;7.878;2022-07-25T14:53:31;3.38;;;2.45;;
68010;SDS011;54794;48.348;7.878;2022-07-25T14:56:01;4.43;;;2.53;;
68010;SDS011;54794;48.348;7.878;2022-07-25T14:58:30;2.80;;;2.40;;
68010;SDS011;54794;48.348;7.878;2022-07-25T15:00:58;5.03;;;2.83;;
68010;SDS011;54794;48.348;7.878;2022-07-25T15:03:26;3.03;;;2.65;;
68010;SDS011;54794;48.348;7.878;2022-07-25T15:05:53;3.13;;;2.80;;
68010;SDS011;54794;48.348;7.878;2022-07-25T15:08:20;6.20;;;2.83;;
68010;SDS011;54794;48.348;7.878;2022-07-25T15:10:47;2.65;;;2.35;;
68010;SDS011;54794;48.348;7.878;2022-07-25T15:13:14;3.20;;;2.90;;
68010;SDS011;54794;48.348;7.878;2022-07-25T15:15:58;3.35;;;2.40;;
68010;SDS011;54794;48.348;7.878;2022-07-25T15:18:26;3.60;;;2.85;;
68010;SDS011;54794;48.348;7.878;2022-07-25T15:20:53;2.88;;;2.67;;
68010;SDS011;54794;48.348;7.878;2022-07-25T15:25:54;2.78;;;2.35;;
68010;SDS011;54794;48.348;7.878;2022-07-25T15:28:28;2.80;;;2.50;;
68010;SDS011;54794;48.348;7.878;2022-07-25T15:30:57;3.47;;;3.00;;
68010;SDS011;54794;48.348;7.878;2022-07-25T15:33:25;4.85;;;2.90;;
68010;SDS011;54794;48.348;7.878;2022-07-25T15:35:52;3.22;;;2.70;;
68010;SDS011;54794;48.348;7.878;2022-07-25T15:38:19;2.97;;;2.67;;
68010;SDS011;54794;48.348;7.878;2022-07-25T15:40:47;6.35;;;3.03;;
68010;SDS011;54794;48.348;7.878;2022-07-25T15:43:14;3.28;;;2.70;;
68010;SDS011;54794;48.348;7.878;2022-07-25T15:45:42;2.95;;;2.63;;